Time;durP1;ratioP1;P1;durP2;ratioP2;P2;SDS_P1;SDS_P2;PMS_P1;PMS_P2;Temp;Humidity;BMP_temperature;BMP_pressure;BME280_temperature;BME280_humidity;BME280_pressure;Samples;Min_cycle;Max_cycle;Signal;HPM_P1;HPM_P2
2023/05/08 00:02:01;;;;;;;10.03;7.20;;;12.80;99.90;;;;;;5113114;28;20082;-70
2023/05/08 00:04:26;;;;;;;10.95;7.03;;;12.70;99.90;;;;;;5114491;28;20047;-73
2023/05/08 00:06:52;;;;;;;9.03;7.33;;;12.70;99.90;;;;;;5114142;28;20413;-73
2023/05/08 00:09:19;;;;;;;9.43;7.07;;;12.70;99.90;;;;;;5114257;28;20448;-72
2023/05/08 00:11:44;;;;;;;10.13;6.95;;;12.60;99.90;;;;;;5114214;28;20066;-73
2023/05/08 00:14:10;;;;;;;9.60;7.20;;;12.70;99.90;;;;;;5114220;28;20463;-72
2023/05/08 00:16:36;;;;;;;8.90;6.60;;;12.60;99.90;;;;;;5114213;28;20169;-72
2023/05/08 00:19:02;;;;;;;10.45;7.32;;;12.70;99.90;;;;;;5114395;28;20047;-73
2023/05/08 00:21:27;;;;;;;11.27;7.40;;;12.60;99.90;;;;;;5114145;28;20036;-72
2023/05/08 00:23:53;;;;;;;10.70;7.40;;;12.50;99.90;;;;;;5114139;28;20058;-73
2023/05/08 00:26:20;;;;;;;12.33;7.43;;;12.50;99.90;;;;;;5114028;28;20042;-72
2023/05/08 00:28:46;;;;;;;9.25;7.07;;;12.50;99.90;;;;;;5113693;28;20463;-73
2023/05/08 00:31:12;;;;;;;9.43;7.07;;;12.40;99.90;;;;;;5117133;28;20039;-73
2023/05/08 00:33:38;;;;;;;9.23;6.97;;;12.50;99.90;;;;;;5117942;28;20550;-72
2023/05/08 00:36:05;;;;;;;8.90;6.90;;;12.40;99.90;;;;;;5118139;28;20123;-73
2023/05/08 00:38:35;;;;;;;9.18;7.30;;;12.40;99.90;;;;;;5117994;28;20032;-72
2023/05/08 00:41:01;;;;;;;9.18;7.18;;;12.40;99.90;;;;;;5117715;28;20135;-70
2023/05/08 00:43:27;;;;;;;10.65;7.35;;;12.40;99.90;;;;;;5118025;28;20050;-73
2023/05/08 00:45:59;;;;;;;9.67;7.37;;;12.30;99.90;;;;;;5117941;28;20043;-73
2023/05/08 00:48:29;;;;;;;8.98;6.88;;;12.30;99.90;;;;;;5117831;28;20104;-72
2023/05/08 00:50:55;;;;;;;8.32;6.57;;;12.40;99.90;;;;;;5118395;27;20044;-72
2023/05/08 00:53:22;;;;;;;10.38;7.63;;;12.30;99.90;;;;;;5117720;28;20036;-72
2023/05/08 00:55:49;;;;;;;8.38;6.95;;;12.30;99.90;;;;;;5117786;28;20035;-72
2023/05/08 00:58:15;;;;;;;9.00;7.10;;;12.30;99.90;;;;;;5118049;28;20040;-73
2023/05/08 01:00:43;;;;;;;8.60;7.00;;;12.30;99.90;;;;;;5118227;28;20062;-73
2023/05/08 01:03:09;;;;;;;8.55;7.28;;;12.30;99.90;;;;;;5117444;28;20471;-72
2023/05/08 01:05:35;;;;;;;9.80;7.47;;;12.30;99.90;;;;;;5117432;28;20039;-73
2023/05/08 01:08:01;;;;;;;9.50;7.37;;;12.30;99.90;;;;;;5117409;28;20078;-72
2023/05/08 01:10:36;;;;;;;8.57;7.03;;;12.40;99.90;;;;;;5117519;28;20419;-72
2023/05/08 01:13:17;;;;;;;7.78;6.70;;;12.30;99.90;;;;;;5117814;27;20080;-72
2023/05/08 01:15:48;;;;;;;10.88;7.35;;;12.20;99.90;;;;;;5116293;28;20055;-72
2023/05/08 01:18:21;;;;;;;9.77;7.20;;;12.20;99.90;;;;;;5117010;28;20486;-72
2023/05/08 01:21:02;;;;;;;10.95;6.88;;;12.30;99.90;;;;;;5117424;28;20119;-72
2023/05/08 01:23:46;;;;;;;8.45;6.75;;;12.20;99.90;;;;;;5117245;28;20129;-72
2023/05/08 01:26:39;;;;;;;8.60;7.30;;;12.20;99.90;;;;;;5117158;28;20050;-72
2023/05/08 01:29:17;;;;;;;11.07;7.70;;;12.10;99.90;;;;;;5117092;28;20039;-72
2023/05/08 01:32:18;;;;;;;9.43;7.20;;;12.10;99.90;;;;;;5117635;28;20031;-72
2023/05/08 01:35:05;;;;;;;9.93;7.25;;;12.10;99.90;;;;;;5117035;28;20050;-72
2023/05/08 01:37:46;;;;;;;9.20;6.90;;;12.00;99.90;;;;;;5117403;28;20043;-72
2023/05/08 01:40:20;;;;;;;10.27;7.05;;;12.00;99.90;;;;;;5116880;28;20608;-72
2023/05/08 01:43:13;;;;;;;10.98;7.88;;;11.90;99.90;;;;;;5116206;28;20032;-73
2023/05/08 01:45:43;;;;;;;11.35;7.25;;;11.90;99.90;;;;;;5116779;28;20459;-73
2023/05/08 01:48:32;;;;;;;9.88;7.32;;;11.90;99.90;;;;;;5116704;28;20482;-72
2023/05/08 01:51:04;;;;;;;10.15;7.35;;;11.80;99.90;;;;;;5116985;28;20064;-73
2023/05/08 01:53:37;;;;;;;11.77;7.13;;;11.80;99.90;;;;;;5116835;28;20039;-73
2023/05/08 01:56:10;;;;;;;10.02;7.00;;;11.80;99.90;;;;;;5116575;28;20047;-72
2023/05/08 01:58:36;;;;;;;8.68;6.82;;;11.70;99.90;;;;;;5116321;28;20043;-73
2023/05/08 02:01:02;;;;;;;9.02;7.07;;;12.20;99.90;;;;;;5116500;28;20120;-72
2023/05/08 02:03:30;;;;;;;9.63;6.90;;;11.70;99.90;;;;;;5116368;28;20044;-72
2023/05/08 02:05:57;;;;;;;9.40;7.22;;;11.70;99.90;;;;;;5116234;28;20475;-73
2023/05/08 02:08:25;;;;;;;10.02;7.38;;;11.60;99.90;;;;;;5116288;28;20032;-72
2023/05/08 02:10:52;;;;;;;10.18;7.65;;;11.50;99.90;;;;;;5116247;28;20044;-72
2023/05/08 02:13:18;;;;;;;;;;;11.90;99.90;;;;;;5116747;28;20055;-72
2023/05/08 02:15:47;;;;;;;9.35;6.97;;;11.60;99.90;;;;;;5116182;28;19916;-72
2023/05/08 02:18:15;;;;;;;8.70;6.90;;;11.50;99.90;;;;;;5115888;28;20524;-72
2023/05/08 02:20:41;;;;;;;9.75;7.00;;;11.50;99.90;;;;;;5116053;28;20530;-72
2023/05/08 02:23:07;;;;;;;9.37;6.63;;;11.40;99.90;;;;;;5115963;28;20085;-72
2023/05/08 02:25:35;;;;;;;9.50;7.57;;;11.30;99.90;;;;;;5116042;28;20097;-72
2023/05/08 02:28:01;;;;;;;13.68;7.20;;;11.30;99.90;;;;;;5115889;28;20039;-72
2023/05/08 02:30:27;;;;;;;10.48;7.32;;;11.30;99.90;;;;;;5115682;27;20035;-72
2023/05/08 02:32:55;;;;;;;10.48;7.03;;;11.20;99.90;;;;;;5115900;28;20514;-72
2023/05/08 02:35:23;;;;;;;10.32;7.13;;;11.20;99.90;;;;;;5115871;28;20096;-72
2023/05/08 02:37:52;;;;;;;9.57;7.40;;;11.10;99.90;;;;;;5115786;28;20118;-72
2023/05/08 02:40:21;;;;;;;9.07;7.25;;;11.10;99.90;;;;;;5115722;28;20036;-72
2023/05/08 02:42:46;;;;;;;10.55;7.03;;;11.10;99.90;;;;;;5116073;28;20079;-72
2023/05/08 02:45:13;;;;;;;10.30;7.33;;;11.00;99.90;;;;;;5115629;28;20039;-72
2023/05/08 02:47:58;;;;;;;8.70;6.82;;;11.00;99.90;;;;;;5115466;28;20043;-72
2023/05/08 02:50:37;;;;;;;11.15;6.88;;;10.90;99.90;;;;;;5115307;28;20097;-72
2023/05/08 02:53:07;;;;;;;10.02;7.35;;;10.90;99.90;;;;;;5114748;28;20459;-72
2023/05/08 02:55:56;;;;;;;10.43;7.20;;;10.70;99.90;;;;;;5115531;28;20031;-72
2023/05/08 02:58:43;;;;;;;9.40;7.25;;;10.80;99.90;;;;;;5115455;28;20092;-72
2023/05/08 03:01:23;;;;;;;10.93;6.82;;;10.80;99.90;;;;;;5115813;28;20032;-72
2023/05/08 03:03:58;;;;;;;11.00;7.85;;;10.70;99.90;;;;;;5115556;28;20043;-72
2023/05/08 03:06:25;;;;;;;10.45;7.28;;;10.70;99.90;;;;;;5115272;28;20049;-73
2023/05/08 03:08:55;;;;;;;9.50;7.22;;;10.70;99.90;;;;;;5115150;28;20039;-72
2023/05/08 03:11:26;;;;;;;10.82;7.38;;;10.60;99.90;;;;;;5115085;28;20070;-72
2023/05/08 03:13:57;;;;;;;10.65;7.70;;;10.60;99.90;;;;;;5115164;28;20042;-72
2023/05/08 03:16:26;;;;;;;9.82;7.65;;;10.60;99.90;;;;;;5115055;28;20047;-72
2023/05/08 03:18:59;;;;;;;10.57;7.85;;;10.50;99.90;;;;;;5114943;28;20039;-72
2023/05/08 03:21:29;;;;;;;10.88;6.90;;;10.40;99.90;;;;;;5115036;28;20076;-72
2023/05/08 03:23:57;;;;;;;10.15;7.10;;;10.40;99.90;;;;;;5114852;28;20494;-72
2023/05/08 03:26:23;;;;;;;9.82;7.43;;;10.40;99.90;;;;;;5114854;28;20071;-72
2023/05/08 03:28:50;;;;;;;10.30;7.28;;;10.40;99.90;;;;;;5114641;28;20086;-72
2023/05/08 03:31:19;;;;;;;11.77;8.73;;;10.30;99.90;;;;;;5114817;28;20085;-73
2023/05/08 03:33:46;;;;;;;10.55;7.18;;;10.50;99.90;;;;;;5114712;28;20502;-72
2023/05/08 03:36:13;;;;;;;;;;;10.30;99.90;;;;;;5115010;28;20031;-72
2023/05/08 03:38:39;;;;;;;9.60;7.25;;;10.30;99.90;;;;;;5114539;28;20419;-72
2023/05/08 03:41:05;;;;;;;14.03;7.67;;;10.30;99.90;;;;;;5114605;28;20035;-72
2023/05/08 03:43:31;;;;;;;15.10;7.37;;;10.40;99.90;;;;;;5114763;28;20281;-72
2023/05/08 03:45:57;;;;;;;10.02;7.72;;;10.40;99.90;;;;;;5114481;28;20040;-72
2023/05/08 03:48:24;;;;;;;11.07;7.80;;;10.40;99.90;;;;;;5114369;28;20032;-72
2023/05/08 03:50:50;;;;;;;10.82;7.30;;;10.70;99.90;;;;;;5114282;28;20035;-72
2023/05/08 03:53:16;;;;;;;9.73;7.37;;;10.50;99.90;;;;;;5114110;28;20036;-72
2023/05/08 03:55:42;;;;;;;12.65;8.25;;;11.10;99.90;;;;;;5114353;28;20092;-72
2023/05/08 03:58:25;;;;;;;10.15;7.78;;;10.70;99.90;;;;;;5114264;28;20518;-72
2023/05/08 04:01:08;;;;;;;10.40;7.82;;;10.50;99.90;;;;;;5114580;28;20044;-72
2023/05/08 04:03:46;;;;;;;10.85;6.97;;;10.50;99.90;;;;;;5114179;28;20058;-72
2023/05/08 04:06:19;;;;;;;10.35;7.45;;;10.50;99.90;;;;;;5113953;28;20135;-72
2023/05/08 04:08:57;;;;;;;9.95;7.75;;;10.60;99.90;;;;;;5114494;28;20079;-72
2023/05/08 04:11:28;;;;;;;;;;;10.60;99.90;;;;;;5114706;28;20039;-72
2023/05/08 04:14:02;;;;;;;11.32;8.20;;;10.20;99.90;;;;;;5114288;28;19938;-72
2023/05/08 04:16:31;;;;;;;11.48;7.82;;;10.60;99.90;;;;;;5114244;28;20043;-72
2023/05/08 04:19:09;;;;;;;10.55;7.45;;;10.50;99.90;;;;;;5114112;28;20035;-72
2023/05/08 04:21:38;;;;;;;10.13;7.20;;;10.60;99.90;;;;;;5114444;28;20035;-72
2023/05/08 04:24:07;;;;;;;12.73;7.55;;;10.60;99.90;;;;;;5114016;28;20047;-72
2023/05/08 04:26:33;;;;;;;10.40;7.82;;;10.60;99.90;;;;;;5113737;28;20122;-72
2023/05/08 04:28:59;;;;;;;11.65;7.72;;;11.20;99.90;;;;;;5113673;28;20529;-72
2023/05/08 04:31:26;;;;;;;9.05;6.97;;;10.60;99.90;;;;;;5114086;28;20044;-72
2023/05/08 04:33:52;;;;;;;11.05;7.88;;;10.60;99.90;;;;;;5113886;28;20082;-72
2023/05/08 04:36:18;;;;;;;9.05;7.07;;;10.70;99.90;;;;;;5113647;28;20479;-72
2023/05/08 04:38:44;;;;;;;8.43;6.43;;;10.70;99.90;;;;;;5113989;28;20114;-72
2023/05/08 04:41:09;;;;;;;12.65;6.95;;;10.60;99.90;;;;;;5114208;28;20036;-73
2023/05/08 04:43:35;;;;;;;8.20;6.30;;;10.70;99.90;;;;;;5113982;28;20127;-72
2023/05/08 04:46:03;;;;;;;10.27;7.30;;;10.70;99.90;;;;;;5113920;28;20040;-72
2023/05/08 04:48:31;;;;;;;12.85;7.88;;;10.70;99.90;;;;;;5113791;28;20079;-72
2023/05/08 04:50:57;;;;;;;11.48;7.38;;;11.20;99.90;;;;;;5113888;28;20043;-72
2023/05/08 04:53:23;;;;;;;8.82;7.30;;;10.70;99.90;;;;;;5113848;28;20378;-72
2023/05/08 04:55:48;;;;;;;8.90;6.60;;;10.90;99.90;;;;;;5113813;28;20036;-73
2023/05/08 04:58:14;;;;;;;9.25;7.00;;;10.80;99.90;;;;;;5113512;28;20049;-72
2023/05/08 05:00:39;;;;;;;9.75;6.97;;;10.80;99.90;;;;;;5113704;28;20044;-72
2023/05/08 05:03:05;;;;;;;9.38;7.03;;;10.80;99.90;;;;;;5113385;28;20047;-71
2023/05/08 05:05:30;;;;;;;10.82;7.20;;;10.80;99.90;;;;;;5113828;28;20047;-72
2023/05/08 05:07:56;;;;;;;8.43;6.88;;;10.90;99.90;;;;;;5113690;28;20035;-72
2023/05/08 05:10:22;;;;;;;8.07;6.18;;;10.80;99.90;;;;;;5113730;28;20031;-73
2023/05/08 05:12:47;;;;;;;10.52;7.32;;;10.80;99.90;;;;;;5113386;28;20422;-75
2023/05/08 05:15:13;;;;;;;11.05;7.15;;;10.80;99.90;;;;;;5113700;28;20039;-72
2023/05/08 05:17:38;;;;;;;8.75;7.25;;;10.80;99.90;;;;;;5114422;28;20028;-72
2023/05/08 05:20:06;;;;;;;8.90;6.28;;;11.20;99.90;;;;;;5117393;28;20039;-74
2023/05/08 05:22:32;;;;;;;8.55;6.88;;;10.80;99.90;;;;;;5116382;28;20039;-73
2023/05/08 05:24:57;;;;;;;7.70;6.28;;;10.80;99.90;;;;;;5117146;28;20043;-72
2023/05/08 05:27:23;;;;;;;10.73;7.18;;;10.80;99.90;;;;;;5117634;28;20125;-73
2023/05/08 05:29:49;;;;;;;9.40;7.10;;;10.80;99.90;;;;;;5117138;28;20047;-72
2023/05/08 05:32:15;;;;;;;8.65;6.40;;;11.40;99.90;;;;;;5116986;28;20032;-73
2023/05/08 05:34:40;;;;;;;9.60;7.07;;;10.90;99.90;;;;;;5117063;28;20040;-72
2023/05/08 05:37:06;;;;;;;7.85;6.35;;;10.90;99.90;;;;;;5117016;28;20357;-73
2023/05/08 05:39:31;;;;;;;7.78;6.15;;;11.00;99.90;;;;;;5117022;28;20043;-74
2023/05/08 05:41:57;;;;;;;8.95;6.32;;;11.10;99.90;;;;;;5116783;28;20040;-73
2023/05/08 05:44:23;;;;;;;8.93;6.35;;;11.10;99.90;;;;;;5116764;28;20091;-73
2023/05/08 05:46:48;;;;;;;9.02;6.65;;;11.10;99.90;;;;;;5117190;28;20038;-72
2023/05/08 05:49:14;;;;;;;8.80;6.30;;;11.20;99.90;;;;;;5116772;28;20409;-72
2023/05/08 05:51:40;;;;;;;8.82;6.50;;;11.30;99.90;;;;;;5116916;28;20050;-73
2023/05/08 05:54:05;;;;;;;9.48;5.85;;;11.40;99.90;;;;;;5116750;28;20131;-73
2023/05/08 05:56:31;;;;;;;8.95;6.80;;;11.40;99.90;;;;;;5116534;28;20478;-73
2023/05/08 05:58:56;;;;;;;11.30;6.55;;;11.60;99.90;;;;;;5116595;28;20077;-73
2023/05/08 06:01:23;;;;;;;7.38;5.90;;;11.70;99.90;;;;;;5116516;28;20032;-72
2023/05/08 06:03:49;;;;;;;10.70;6.05;;;11.80;99.90;;;;;;5116140;28;20066;-72
2023/05/08 06:06:15;;;;;;;13.13;6.40;;;11.80;99.90;;;;;;5116448;28;20042;-72
2023/05/08 06:08:40;;;;;;;10.15;6.05;;;12.00;99.90;;;;;;5116278;28;20123;-72
2023/05/08 06:11:06;;;;;;;8.73;6.63;;;12.00;99.90;;;;;;5116179;28;20113;-73
2023/05/08 06:13:32;;;;;;;8.10;6.32;;;12.10;99.90;;;;;;5116270;28;20043;-74
2023/05/08 06:15:57;;;;;;;7.40;5.70;;;12.20;99.90;;;;;;5116233;28;20075;-73
2023/05/08 06:18:23;;;;;;;9.35;7.10;;;12.40;99.90;;;;;;5114955;28;20036;-75
2023/05/08 06:20:55;;;;;;;8.50;5.90;;;12.40;99.90;;;;;;5115973;28;20110;-75
2023/05/08 06:23:21;;;;;;;9.75;6.35;;;12.70;99.90;;;;;;5116183;28;20043;-71
2023/05/08 06:25:46;;;;;;;7.53;5.40;;;12.80;99.90;;;;;;5116050;28;20379;-72
2023/05/08 06:28:12;;;;;;;7.38;5.70;;;13.00;99.90;;;;;;5115657;28;20036;-72
2023/05/08 06:30:38;;;;;;;7.75;6.50;;;12.90;99.90;;;;;;5115966;27;20375;-74
2023/05/08 06:33:03;;;;;;;7.60;5.82;;;12.80;99.90;;;;;;5115891;28;20039;-72
2023/05/08 06:35:29;;;;;;;7.13;5.30;;;12.80;99.90;;;;;;5116020;28;20459;-75
2023/05/08 06:37:55;;;;;;;7.33;5.80;;;12.80;99.90;;;;;;5115736;28;20095;-72
2023/05/08 06:40:20;;;;;;;8.13;5.70;;;12.70;99.90;;;;;;5115801;28;20120;-73
2023/05/08 06:42:46;;;;;;;8.02;5.72;;;12.70;99.90;;;;;;5115454;28;20066;-74
2023/05/08 06:45:12;;;;;;;6.95;5.47;;;12.80;99.90;;;;;;5116017;28;20040;-74
2023/05/08 06:47:37;;;;;;;7.25;5.57;;;12.90;99.90;;;;;;5115574;28;20035;-74
2023/05/08 06:50:03;;;;;;;6.47;5.45;;;13.10;99.90;;;;;;5115645;28;20536;-74
2023/05/08 06:52:29;;;;;;;6.73;5.40;;;13.30;99.90;;;;;;5115546;28;20122;-73
2023/05/08 06:54:54;;;;;;;7.78;5.78;;;13.40;99.90;;;;;;5115492;28;20032;-74
2023/05/08 06:57:20;;;;;;;7.07;5.78;;;13.60;99.90;;;;;;5115384;28;20081;-74
2023/05/08 06:59:46;;;;;;;6.78;5.70;;;13.60;99.90;;;;;;5115783;28;20123;-74
2023/05/08 07:02:11;;;;;;;7.10;5.68;;;13.80;99.90;;;;;;5115376;28;20035;-74
2023/05/08 07:04:37;;;;;;;6.47;5.47;;;13.90;99.90;;;;;;5115228;28;20047;-73
2023/05/08 07:07:02;;;;;;;9.40;5.30;;;14.00;99.90;;;;;;5115222;28;20032;-74
2023/05/08 07:09:28;;;;;;;7.40;5.20;;;14.10;99.90;;;;;;5115196;28;20043;-74
2023/05/08 07:11:53;;;;;;;6.90;5.70;;;14.20;99.90;;;;;;5115058;28;20463;-74
2023/05/08 07:14:19;;;;;;;6.87;5.13;;;14.30;99.90;;;;;;5114822;28;20099;-75
2023/05/08 07:16:45;;;;;;;6.95;5.32;;;14.60;99.90;;;;;;5115079;28;20040;-73
2023/05/08 07:19:10;;;;;;;6.80;5.45;;;14.70;99.90;;;;;;5115019;28;20523;-73
2023/05/08 07:21:36;;;;;;;6.37;5.40;;;14.80;99.90;;;;;;5114820;28;20044;-73
2023/05/08 07:24:02;;;;;;;7.35;5.38;;;15.00;99.90;;;;;;5115151;27;20059;-73
2023/05/08 07:26:27;;;;;;;8.13;5.43;;;15.00;99.90;;;;;;5114600;27;20486;-75
2023/05/08 07:28:53;;;;;;;9.30;5.77;;;15.10;99.90;;;;;;5114851;28;20032;-74
2023/05/08 07:31:19;;;;;;;8.03;5.73;;;15.10;99.90;;;;;;5115171;28;20047;-74
2023/05/08 07:33:45;;;;;;;7.43;5.37;;;15.20;99.90;;;;;;5114009;28;20047;-74
2023/05/08 07:36:11;;;;;;;5.90;4.90;;;15.40;99.90;;;;;;5107750;28;20313;-74
2023/05/08 07:38:37;;;;;;;8.80;5.40;;;15.50;99.90;;;;;;5114225;28;20470;-73
2023/05/08 07:41:04;;;;;;;7.10;5.57;;;15.60;99.90;;;;;;5113868;28;20126;-75
2023/05/08 07:43:31;;;;;;;8.45;5.85;;;15.50;99.90;;;;;;5114554;28;20069;-73
2023/05/08 07:45:57;;;;;;;8.40;5.45;;;15.60;99.90;;;;;;5113907;28;20046;-73
2023/05/08 07:48:23;;;;;;;6.28;5.20;;;15.70;99.90;;;;;;5114096;28;20032;-73
2023/05/08 07:50:49;;;;;;;6.47;5.50;;;15.80;99.90;;;;;;5114215;28;20039;-72
2023/05/08 07:53:15;;;;;;;7.60;5.30;;;15.90;99.90;;;;;;5114357;28;20036;-72
2023/05/08 07:55:41;;;;;;;6.93;5.20;;;15.90;99.90;;;;;;5114168;28;20107;-72
2023/05/08 07:58:06;;;;;;;9.27;5.87;;;16.00;99.90;;;;;;5114245;28;20043;-77
2023/05/08 08:00:32;;;;;;;7.63;5.30;;;15.90;99.90;;;;;;5147333;27;20153;-77
2023/05/08 08:02:58;;;;;;;7.47;5.90;;;16.10;99.90;;;;;;5113892;28;20058;-75
2023/05/08 08:05:23;;;;;;;8.40;5.43;;;16.20;99.90;;;;;;5114112;28;20085;-77
2023/05/08 08:07:49;;;;;;;8.20;6.00;;;16.30;99.90;;;;;;5113635;28;20114;-76
2023/05/08 08:10:15;;;;;;;10.10;6.10;;;16.40;99.90;;;;;;5113963;28;20043;-77
2023/05/08 08:12:40;;;;;;;8.70;6.18;;;16.80;99.90;;;;;;5114101;28;20528;-75
2023/05/08 08:15:07;;;;;;;7.30;6.00;;;16.50;99.90;;;;;;5147019;27;20078;-76
2023/05/08 08:17:32;;;;;;;8.88;5.28;;;16.60;99.90;;;;;;5113359;28;20039;-75
2023/05/08 08:19:58;;;;;;;9.73;5.83;;;16.70;99.90;;;;;;5114026;28;20403;-75
2023/05/08 08:22:24;;;;;;;7.77;5.70;;;16.70;99.90;;;;;;5113730;28;20079;-76
2023/05/08 08:24:50;;;;;;;7.65;6.00;;;16.80;99.90;;;;;;5113715;28;20075;-71
2023/05/08 08:27:16;;;;;;;7.20;5.67;;;17.00;99.90;;;;;;5113887;28;20431;-72
2023/05/08 08:29:41;;;;;;;9.13;6.37;;;17.10;99.90;;;;;;5113632;28;20387;-71
2023/05/08 08:32:07;;;;;;;6.50;5.50;;;17.10;99.90;;;;;;5113649;28;20386;-72
2023/05/08 08:34:33;;;;;;;6.97;6.13;;;17.20;99.90;;;;;;5113547;28;20042;-71
2023/05/08 08:36:59;;;;;;;7.60;6.25;;;17.20;99.90;;;;;;5113721;28;20550;-70
2023/05/08 08:39:24;;;;;;;10.60;6.00;;;17.20;99.90;;;;;;5113852;28;20126;-71
2023/05/08 08:41:50;;;;;;;6.77;5.67;;;17.30;99.90;;;;;;5113747;28;20044;-71
2023/05/08 08:44:15;;;;;;;7.80;5.97;;;17.40;99.90;;;;;;5113553;28;20043;-72
2023/05/08 08:46:48;;;;;;;6.93;5.50;;;17.70;99.90;;;;;;5113685;28;20040;-72
2023/05/08 08:49:17;;;;;;;7.10;5.30;;;17.60;99.90;;;;;;5113660;28;20460;-72
2023/05/08 08:51:50;;;;;;;7.00;5.72;;;17.80;99.90;;;;;;5114423;28;20134;-72
2023/05/08 08:54:20;;;;;;;11.60;6.75;;;17.80;99.90;;;;;;5116673;28;20036;-72
2023/05/08 08:56:48;;;;;;;8.60;5.80;;;17.80;99.90;;;;;;5117765;28;20453;-72
2023/05/08 08:59:15;;;;;;;9.55;6.13;;;18.00;99.90;;;;;;5117376;28;20094;-72
2023/05/08 09:01:44;;;;;;;7.93;6.15;;;18.00;99.90;;;;;;5117529;28;20085;-71
2023/05/08 09:04:09;;;;;;;8.23;6.47;;;18.10;99.90;;;;;;5117243;28;20449;-71
2023/05/08 09:06:37;;;;;;;9.17;5.87;;;18.20;99.90;;;;;;5117423;28;20047;-72
2023/05/08 09:09:03;;;;;;;7.65;6.38;;;18.30;99.90;;;;;;5117287;28;20048;-73
2023/05/08 09:11:29;;;;;;;10.60;6.32;;;18.40;99.90;;;;;;5117496;28;20386;-71
2023/05/08 09:13:55;;;;;;;9.70;6.63;;;18.40;99.90;;;;;;5117029;28;20035;-71
2023/05/08 09:16:21;;;;;;;6.97;5.97;;;18.20;99.90;;;;;;5117040;28;20046;-72
2023/05/08 09:18:47;;;;;;;9.35;6.55;;;18.10;99.90;;;;;;5116938;28;20036;-71
2023/05/08 09:21:13;;;;;;;15.70;6.13;;;18.10;99.90;;;;;;5116747;28;20047;-71
2023/05/08 09:23:57;;;;;;;12.07;6.70;;;18.20;99.90;;;;;;5117163;28;20571;-72
2023/05/08 09:26:33;;;;;;;7.18;5.97;;;18.30;99.90;;;;;;5117046;28;20134;-73
2023/05/08 09:29:12;;;;;;;9.10;6.28;;;18.50;99.90;;;;;;5116766;28;20035;-73
2023/05/08 09:31:44;;;;;;;7.32;6.22;;;18.60;99.90;;;;;;5115617;28;20105;-72
2023/05/08 09:34:22;;;;;;;8.02;6.82;;;18.60;99.90;;;;;;5116735;28;20078;-71
2023/05/08 09:36:49;;;;;;;11.23;6.80;;;18.60;99.90;;;;;;5116467;28;20040;-72
2023/05/08 09:39:24;;;;;;;9.75;6.90;;;18.80;99.90;;;;;;5116909;28;20090;-72
2023/05/08 09:41:57;;;;;;;7.93;6.38;;;19.00;99.90;;;;;;5116775;28;20452;-71
2023/05/08 09:44:23;;;;;;;8.63;6.65;;;19.10;99.90;;;;;;5116587;28;20119;-72
2023/05/08 09:46:49;;;;;;;11.10;7.03;;;19.30;99.90;;;;;;5116674;28;20543;-73
2023/05/08 09:49:18;;;;;;;8.90;6.50;;;19.40;99.90;;;;;;5116495;28;20039;-74
2023/05/08 09:51:53;;;;;;;7.82;6.55;;;19.40;99.90;;;;;;5115874;28;20099;-74
2023/05/08 09:54:19;;;;;;;8.30;6.85;;;19.60;99.90;;;;;;5116603;28;20043;-72
2023/05/08 09:56:45;;;;;;;12.03;6.60;;;19.80;99.90;;;;;;5116250;28;20042;-73
2023/05/08 09:59:30;;;;;;;9.17;7.43;;;19.90;99.90;;;;;;5116363;28;20609;-73
2023/05/08 10:01:56;;;;;;;7.68;6.45;;;19.90;99.90;;;;;;5116481;28;20040;-75
2023/05/08 10:04:34;;;;;;;8.50;6.80;;;20.00;99.90;;;;;;5115810;28;20047;-72
2023/05/08 10:07:00;;;;;;;7.85;6.95;;;20.10;99.90;;;;;;5116224;28;20039;-72
2023/05/08 10:09:26;;;;;;;9.75;6.80;;;20.10;99.90;;;;;;5115865;28;20126;-71
2023/05/08 10:11:54;;;;;;;8.80;6.90;;;19.90;99.90;;;;;;5116105;28;20126;-71
2023/05/08 10:14:20;;;;;;;8.48;6.78;;;19.80;99.90;;;;;;5116317;28;20043;-71
2023/05/08 10:16:51;;;;;;;;;;;19.80;99.90;;;;;;5116486;28;20501;-72
2023/05/08 10:19:23;;;;;;;9.75;6.40;;;19.90;99.90;;;;;;5116320;28;19922;-72
2023/05/08 10:21:53;;;;;;;12.48;6.82;;;19.90;99.90;;;;;;5116157;28;20071;-72
2023/05/08 10:24:32;;;;;;;8.35;7.05;;;20.20;99.90;;;;;;5115576;28;20047;-74
2023/05/08 10:27:19;;;;;;;9.50;7.10;;;20.40;99.90;;;;;;5115790;28;20066;-71
2023/05/08 10:29:52;;;;;;;8.47;7.30;;;20.30;99.90;;;;;;5115774;28;20048;-71
2023/05/08 10:32:24;;;;;;;8.40;7.00;;;20.30;99.90;;;;;;5115637;28;20039;-71
2023/05/08 10:34:57;;;;;;;7.72;6.13;;;20.20;99.90;;;;;;5115667;28;20039;-72
2023/05/08 10:37:23;;;;;;;8.18;7.03;;;20.20;99.90;;;;;;5115705;28;20046;-71
2023/05/08 10:39:50;;;;;;;8.70;6.50;;;20.30;99.90;;;;;;5115663;28;20031;-70
2023/05/08 10:42:16;;;;;;;10.50;7.65;;;20.20;99.90;;;;;;5115370;28;20085;-74
2023/05/08 10:44:42;;;;;;;10.10;8.07;;;20.30;99.90;;;;;;5115349;28;20067;-76
2023/05/08 10:47:37;;;;;;;10.68;8.15;;;20.30;99.90;;;;;;5115041;28;20390;-70
2023/05/08 10:50:16;;;;;;;8.75;7.57;;;20.30;99.90;;;;;;5115544;28;20117;-71
2023/05/08 10:52:51;;;;;;;10.38;8.55;;;20.40;99.90;;;;;;5115294;28;20084;-70
2023/05/08 10:55:22;;;;;;;8.75;7.35;;;20.50;99.90;;;;;;5114307;28;20032;-71
2023/05/08 10:58:08;;;;;;;10.45;6.88;;;20.50;99.90;;;;;;5115230;28;20043;-71
2023/05/08 11:00:51;;;;;;;8.70;6.70;;;20.70;99.90;;;;;;5115122;28;20028;-71
2023/05/08 11:03:27;;;;;;;8.40;7.15;;;20.70;99.90;;;;;;5114936;28;20059;-71
2023/05/08 11:05:55;;;;;;;7.70;6.43;;;20.90;99.90;;;;;;5115052;28;20114;-71
2023/05/08 11:08:26;;;;;;;8.85;6.57;;;21.00;99.90;;;;;;5114814;28;20036;-71
2023/05/08 11:13:31;;;;;;;8.95;7.38;;;21.70;99.90;;;;;;5115181;28;20050;-71
2023/05/08 11:15:57;;;;;;;11.35;7.65;;;21.90;99.90;;;;;;5114010;28;20410;-71
2023/05/08 11:18:25;;;;;;;9.53;8.10;;;22.20;99.90;;;;;;5114878;28;20085;-71
2023/05/08 11:20:58;;;;;;;10.32;8.13;;;22.30;99.90;;;;;;5114735;28;20479;-70
2023/05/08 11:23:28;;;;;;;9.38;7.60;;;22.40;99.90;;;;;;5114967;28;20417;-71
2023/05/08 11:26:02;;;;;;;8.43;7.47;;;22.50;99.90;;;;;;5114548;28;20040;-72
2023/05/08 11:29:00;;;;;;;12.13;8.77;;;22.60;99.90;;;;;;5114752;28;20036;-72
2023/05/08 11:31:49;;;;;;;14.20;8.27;;;22.70;99.90;;;;;;5080194;28;20429;-71
2023/05/08 11:34:44;;;;;;;10.35;8.45;;;22.60;99.90;;;;;;5114823;28;20075;-71
2023/05/08 11:37:18;;;;;;;9.25;7.68;;;22.40;99.90;;;;;;5114489;28;20044;-72
2023/05/08 11:39:43;;;;;;;9.30;7.80;;;22.40;99.90;;;;;;5114201;28;20043;-72
2023/05/08 11:42:32;;;;;;;10.90;8.93;;;22.50;99.90;;;;;;5114551;28;20031;-72
2023/05/08 11:45:12;;;;;;;10.02;8.77;;;22.30;99.90;;;;;;5106015;28;20495;-71
2023/05/08 11:47:40;;;;;;;10.32;7.95;;;22.20;99.90;;;;;;5114024;28;20046;-72
2023/05/08 11:50:08;;;;;;;10.43;8.27;;;22.40;99.90;;;;;;5114308;28;20040;-72
2023/05/08 11:52:35;;;;;;;11.45;7.72;;;22.40;99.90;;;;;;5114275;28;20114;-71
2023/05/08 11:55:09;;;;;;;10.98;9.27;;;22.40;99.90;;;;;;5114192;28;20420;-71
2023/05/08 11:57:35;;;;;;;10.48;8.15;;;22.40;99.90;;;;;;5114319;28;20079;-72
2023/05/08 12:00:05;;;;;;;9.07;7.40;;;22.40;99.90;;;;;;5114338;28;20066;-71
2023/05/08 12:02:40;;;;;;;8.38;7.25;;;22.40;99.90;;;;;;5114004;28;20035;-71
2023/05/08 12:05:09;;;;;;;11.65;7.65;;;22.30;99.90;;;;;;5114151;28;20046;-71
2023/05/08 12:07:45;;;;;;;9.57;7.93;;;22.20;99.90;;;;;;5113927;28;20054;-72
2023/05/08 12:10:15;;;;;;;8.57;7.68;;;22.30;99.90;;;;;;5114220;28;20072;-71
2023/05/08 12:12:42;;;;;;;8.07;7.25;;;22.50;99.90;;;;;;5113850;28;20043;-72
2023/05/08 12:15:11;;;;;;;;;;;22.70;99.90;;;;;;5114870;28;20035;-71
2023/05/08 12:17:37;;;;;;;10.18;8.27;;;22.90;99.90;;;;;;5114298;28;19916;-71
2023/05/08 12:20:14;;;;;;;9.83;7.80;;;22.90;99.90;;;;;;5114045;28;20054;-71
2023/05/08 12:22:40;;;;;;;10.75;8.30;;;23.00;99.90;;;;;;5113862;28;20344;-71
2023/05/08 12:25:08;;;;;;;9.70;7.90;;;23.10;99.90;;;;;;5113993;28;20082;-72
2023/05/08 12:27:36;;;;;;;9.48;8.32;;;22.90;99.90;;;;;;5117821;28;20036;-72
2023/05/08 12:30:07;;;;;;;12.30;8.38;;;22.80;99.90;;;;;;5118345;28;20043;-71
2023/05/08 12:32:35;;;;;;;10.25;8.65;;;22.80;99.90;;;;;;5117243;28;20375;-71
2023/05/08 12:35:01;;;;;;;11.43;8.38;;;22.90;99.90;;;;;;5117925;28;20052;-72
2023/05/08 12:37:27;;;;;;;11.13;8.37;;;23.00;99.90;;;;;;5116747;28;20039;-72
2023/05/08 12:39:53;;;;;;;10.30;8.80;;;22.90;99.90;;;;;;5118016;28;20124;-71
2023/05/08 12:42:19;;;;;;;10.30;8.63;;;23.00;99.90;;;;;;5117969;28;20040;-71
2023/05/08 12:44:52;;;;;;;10.05;8.57;;;22.90;99.90;;;;;;5117822;28;20082;-72
2023/05/08 12:47:19;;;;;;;11.65;9.30;;;22.70;99.90;;;;;;5117785;28;20047;-71
2023/05/08 12:49:48;;;;;;;12.02;9.38;;;22.60;99.90;;;;;;5117860;28;20044;-72
2023/05/08 12:52:14;;;;;;;11.35;7.65;;;22.60;99.90;;;;;;5117591;28;20127;-72
2023/05/08 12:54:47;;;;;;;11.00;8.27;;;22.60;99.90;;;;;;5117341;28;20371;-72
2023/05/08 12:57:17;;;;;;;10.80;8.98;;;22.60;99.90;;;;;;5117781;28;20071;-71
2023/05/08 12:59:44;;;;;;;9.88;8.23;;;22.60;99.90;;;;;;5117650;28;20473;-71